Sao Jose das Laranjeiras, Brazil
Current Conditions -  °F | °C
As of 5:00 PM on Friday 31 Oct 2014 (Local Time) from SBLO Reporting Station
Few Clouds Few Clouds  
Wind Chill: 91°   Ceiling: Unl
Heat Index: 94°   Visibility: 6mi
Dew Point: 66°   Wind: 6mph
Humidity: 43%   Direction: 350°N
Pressure: 29.88"   Gusts: NA
Location:  22.67°S, 50.86°W
Report Text: SBLO 311900Z 35005KT 9999 FEW030 33/19 Q1012
Loading
Personal Weather Stations






























Interactive Weather Map
Tropical Storm Tracking
New forecast layout! Learn more

10-Day Weather Forecast

Advertisements
Track Severe Weather on mobile